Time;durP1;ratioP1;P1;durP2;ratioP2;P2;SDS_P1;SDS_P2;PMS_P1;PMS_P2;Temp;Humidity;BMP_temperature;BMP_pressure;BME280_temperature;BME280_humidity;BME280_pressure;Samples;Min_cycle;Max_cycle;Signal;HPM_P1;HPM_P2
2022/05/22 00:01:41;;;;;;;3.75;1.65;;;13.00;62.90;;;;;;5011821;28;20149;-76
2022/05/22 00:04:08;;;;;;;3.15;1.90;;;13.00;62.80;;;;;;5010724;28;20092;-76
2022/05/22 00:06:35;;;;;;;2.72;1.60;;;13.00;62.90;;;;;;4997366;28;20042;-76
2022/05/22 00:09:00;;;;;;;3.75;1.95;;;13.00;62.80;;;;;;4995804;28;20050;-76
2022/05/22 00:11:26;;;;;;;4.93;2.17;;;13.00;62.80;;;;;;5010225;28;20093;-76
2022/05/22 00:13:52;;;;;;;4.68;2.13;;;13.00;62.70;;;;;;5009432;28;20050;-76
2022/05/22 00:16:36;;;;;;;5.40;2.13;;;13.00;62.70;;;;;;5007541;28;20058;-76
2022/05/22 00:19:06;;;;;;;5.38;2.17;;;12.90;62.70;;;;;;5014752;28;20049;-76
2022/05/22 00:21:33;;;;;;;3.58;1.85;;;12.90;62.80;;;;;;5000645;28;20038;-76
2022/05/22 00:23:58;;;;;;;3.92;2.15;;;12.90;62.80;;;;;;5003659;28;20054;-76
2022/05/22 00:26:24;;;;;;;4.47;2.15;;;12.90;62.70;;;;;;5007156;28;20034;-76
2022/05/22 00:28:50;;;;;;;5.43;1.67;;;12.90;62.80;;;;;;5007300;28;20046;-75
2022/05/22 00:31:17;;;;;;;5.00;2.20;;;12.80;62.70;;;;;;5002553;28;20121;-75
2022/05/22 00:33:42;;;;;;;4.28;1.70;;;12.80;62.70;;;;;;4996734;28;20061;-76
2022/05/22 00:36:08;;;;;;;2.47;1.80;;;12.80;62.70;;;;;;5002644;28;20046;-75
2022/05/22 00:38:34;;;;;;;4.70;1.95;;;12.80;62.70;;;;;;5011775;28;20050;-75
2022/05/22 00:40:59;;;;;;;3.83;2.17;;;12.80;62.80;;;;;;5001643;28;20038;-75
2022/05/22 00:43:31;;;;;;;5.18;2.10;;;12.80;62.80;;;;;;5013657;28;20050;-75
2022/05/22 00:45:58;;;;;;;4.68;2.28;;;12.70;62.70;;;;;;4999580;28;20035;-75
2022/05/22 00:48:25;;;;;;;5.57;2.53;;;12.70;62.70;;;;;;4997403;28;20046;-75
2022/05/22 00:50:52;;;;;;;6.18;3.55;;;12.70;62.80;;;;;;5007373;28;20401;-75
2022/05/22 00:53:21;;;;;;;4.80;2.45;;;12.70;62.80;;;;;;5013075;28;20532;-75
2022/05/22 00:55:47;;;;;;;4.22;2.42;;;12.60;62.70;;;;;;4999562;28;20053;-76
2022/05/22 00:58:21;;;;;;;5.22;3.25;;;12.70;62.80;;;;;;4999884;28;20046;-75
2022/05/22 01:00:47;;;;;;;5.45;3.15;;;12.60;62.80;;;;;;5005718;28;20081;-75
2022/05/22 01:03:29;;;;;;;4.00;2.83;;;12.60;62.80;;;;;;4995376;28;20429;-75
2022/05/22 01:05:56;;;;;;;5.78;2.30;;;12.60;62.80;;;;;;5001381;28;20047;-75
2022/05/22 01:08:23;;;;;;;3.60;2.13;;;12.60;62.80;;;;;;4996797;28;20072;-75
2022/05/22 01:11:05;;;;;;;4.53;2.55;;;12.60;62.80;;;;;;4997103;28;20056;-76
2022/05/22 01:13:35;;;;;;;4.07;1.90;;;12.50;62.70;;;;;;4997822;28;20056;-75
2022/05/22 01:16:03;;;;;;;6.93;2.33;;;12.50;62.80;;;;;;4997454;28;20042;-75
2022/05/22 01:18:30;;;;;;;3.35;1.83;;;12.50;62.90;;;;;;5012296;28;20040;-76
2022/05/22 01:20:56;;;;;;;5.00;2.10;;;12.40;62.80;;;;;;5006523;28;20042;-75
2022/05/22 01:23:23;;;;;;;3.83;1.90;;;12.40;62.80;;;;;;4995149;28;20053;-76
2022/05/22 01:25:49;;;;;;;3.83;2.00;;;12.40;62.80;;;;;;4996899;28;20114;-77
2022/05/22 01:28:17;;;;;;;3.58;1.73;;;12.40;63.00;;;;;;5003131;28;20044;-76
2022/05/22 01:30:43;;;;;;;3.63;1.58;;;12.30;63.00;;;;;;5005764;28;20377;-76
2022/05/22 01:33:09;;;;;;;2.25;1.50;;;12.30;63.10;;;;;;5001664;28;20045;-76
2022/05/22 01:35:35;;;;;;;5.25;2.35;;;12.30;63.10;;;;;;4996523;28;20470;-76
2022/05/22 01:38:03;;;;;;;4.18;2.08;;;12.30;63.10;;;;;;4997080;28;20049;-75
2022/05/22 01:40:29;;;;;;;3.22;1.83;;;12.30;63.20;;;;;;5005096;28;20045;-75
2022/05/22 01:42:54;;;;;;;2.95;1.83;;;12.30;63.20;;;;;;5013156;28;20408;-75
2022/05/22 01:45:25;;;;;;;2.00;1.40;;;12.20;63.10;;;;;;5000904;28;20409;-75
2022/05/22 01:47:51;;;;;;;2.20;1.17;;;12.20;63.10;;;;;;5006975;28;20061;-75
2022/05/22 01:50:17;;;;;;;2.15;1.55;;;12.20;63.00;;;;;;5000031;28;20037;-75
2022/05/22 01:52:43;;;;;;;2.65;1.67;;;12.20;63.00;;;;;;5010677;28;20129;-75
2022/05/22 01:55:10;;;;;;;2.67;1.65;;;12.20;62.90;;;;;;5000277;28;20030;-75
2022/05/22 01:57:37;;;;;;;2.55;1.30;;;12.20;62.70;;;;;;5011289;28;20041;-75
2022/05/22 02:00:05;;;;;;;3.05;1.48;;;12.10;62.50;;;;;;4998708;28;20038;-75
2022/05/22 02:02:31;;;;;;;2.88;1.35;;;12.10;62.60;;;;;;5003128;28;20445;-76
2022/05/22 02:04:57;;;;;;;3.15;1.48;;;12.10;62.70;;;;;;5000422;28;20038;-76
2022/05/22 02:10:08;;;;;;;2.35;1.30;;;12.00;62.80;;;;;;5001931;28;20046;-76
2022/05/22 02:12:34;;;;;;;2.30;1.50;;;12.00;62.80;;;;;;4995059;28;20038;-76
2022/05/22 02:14:59;;;;;;;2.15;1.10;;;12.00;62.80;;;;;;4999741;28;20550;-76
2022/05/22 02:17:25;;;;;;;1.83;1.33;;;12.00;62.70;;;;;;5005301;28;20038;-76
2022/05/22 02:19:51;;;;;;;1.85;1.10;;;12.00;62.70;;;;;;4999056;28;20497;-76
2022/05/22 02:22:16;;;;;;;2.45;1.55;;;12.00;62.70;;;;;;5001229;28;20069;-76
2022/05/22 02:24:42;;;;;;;2.70;1.73;;;11.90;62.70;;;;;;4996344;28;20038;-76
2022/05/22 02:27:07;;;;;;;3.58;1.20;;;11.90;62.80;;;;;;5006288;28;20041;-76
2022/05/22 02:29:36;;;;;;;1.73;1.02;;;11.90;62.80;;;;;;5009580;28;20050;-76
2022/05/22 02:32:03;;;;;;;2.50;1.20;;;11.90;62.90;;;;;;5004445;28;20414;-76
2022/05/22 02:34:28;;;;;;;2.97;1.38;;;11.80;63.00;;;;;;4995637;28;20038;-76
2022/05/22 02:36:54;;;;;;;2.00;0.95;;;11.80;63.00;;;;;;4994355;28;20490;-76
2022/05/22 02:39:20;;;;;;;3.40;1.20;;;11.80;63.50;;;;;;4992397;28;20161;-76
2022/05/22 02:41:46;;;;;;;3.65;1.58;;;11.80;63.10;;;;;;4998721;28;20129;-76
2022/05/22 02:44:11;;;;;;;4.07;2.47;;;11.80;63.20;;;;;;5010248;28;20033;-76
2022/05/22 02:46:37;;;;;;;2.28;1.30;;;11.80;63.20;;;;;;5005809;28;20061;-76
2022/05/22 02:49:02;;;;;;;1.42;1.10;;;11.70;63.10;;;;;;5011867;28;20045;-77
2022/05/22 02:51:28;;;;;;;3.13;1.90;;;11.70;63.10;;;;;;5009919;28;20033;-77
2022/05/22 02:53:54;;;;;;;3.03;1.80;;;11.70;63.20;;;;;;4998110;28;20501;-76
2022/05/22 02:56:22;;;;;;;2.35;1.40;;;11.70;63.20;;;;;;5003755;28;20041;-76
2022/05/22 02:58:48;;;;;;;2.25;1.35;;;11.60;63.20;;;;;;5006401;28;20042;-76
2022/05/22 03:01:14;;;;;;;1.98;1.17;;;11.60;63.20;;;;;;5011897;28;20044;-77
2022/05/22 03:03:39;;;;;;;2.42;1.30;;;11.60;63.30;;;;;;5008811;28;20056;-77
2022/05/22 03:08:49;;;;;;;3.00;1.38;;;11.60;63.40;;;;;;5015117;28;20049;-77
2022/05/22 03:11:15;;;;;;;1.50;1.23;;;11.60;63.30;;;;;;5001461;28;20085;-76
2022/05/22 03:13:41;;;;;;;2.60;1.80;;;11.50;63.30;;;;;;5007480;28;20049;-77
2022/05/22 03:16:07;;;;;;;2.75;1.80;;;11.50;63.30;;;;;;5011001;28;20068;-77
2022/05/22 03:18:33;;;;;;;2.08;1.10;;;11.60;63.30;;;;;;5004471;28;20046;-77
2022/05/22 03:20:58;;;;;;;2.30;1.20;;;11.60;63.40;;;;;;5009602;28;20424;-77
2022/05/22 03:23:24;;;;;;;3.67;1.73;;;11.60;63.40;;;;;;5008566;28;20096;-78
2022/05/22 03:25:50;;;;;;;2.53;1.48;;;11.50;63.30;;;;;;5016060;28;20045;-77
2022/05/22 03:28:17;;;;;;;3.72;1.70;;;11.50;63.30;;;;;;5004728;28;20382;-77
2022/05/22 03:30:43;;;;;;;2.60;1.60;;;11.50;63.40;;;;;;4997776;28;20085;-77
2022/05/22 03:33:09;;;;;;;3.45;1.58;;;11.50;63.40;;;;;;5003710;28;20084;-78
2022/05/22 03:35:35;;;;;;;4.10;2.10;;;11.50;63.40;;;;;;4997984;28;20295;-77
2022/05/22 03:38:04;;;;;;;2.33;1.55;;;11.50;63.40;;;;;;5005908;28;20128;-77
2022/05/22 03:40:30;;;;;;;3.47;1.75;;;11.50;63.40;;;;;;5009030;28;20073;-77
2022/05/22 03:42:56;;;;;;;4.65;1.70;;;11.40;63.40;;;;;;4999422;28;20088;-77
2022/05/22 03:45:22;;;;;;;3.85;1.85;;;11.40;63.40;;;;;;4997518;28;20549;-77
2022/05/22 03:47:47;;;;;;;5.35;2.47;;;11.40;63.50;;;;;;5000699;28;20493;-77
2022/05/22 03:50:14;;;;;;;3.72;1.80;;;11.40;63.50;;;;;;5008001;28;20069;-78
2022/05/22 03:52:43;;;;;;;3.85;1.90;;;11.40;63.90;;;;;;4999402;28;20046;-77
2022/05/22 03:55:12;;;;;;;3.25;1.98;;;11.40;63.50;;;;;;5006816;28;20042;-78
2022/05/22 03:57:38;;;;;;;3.55;2.08;;;11.40;63.50;;;;;;5012919;28;20128;-77
2022/05/22 04:00:10;;;;;;;5.88;3.65;;;11.40;63.50;;;;;;4997618;28;20457;-78
2022/05/22 04:02:35;;;;;;;4.72;2.63;;;11.40;63.70;;;;;;4999280;28;20073;-78
2022/05/22 04:05:03;;;;;;;4.85;2.35;;;11.60;63.80;;;;;;4996254;28;20489;-78
2022/05/22 04:07:28;;;;;;;3.88;2.35;;;11.40;63.70;;;;;;4997384;28;20042;-78
2022/05/22 04:09:56;;;;;;;6.38;3.40;;;11.30;63.70;;;;;;5013967;28;20121;-78
2022/05/22 04:12:22;;;;;;;3.17;2.30;;;11.30;63.70;;;;;;5012010;28;20049;-78
2022/05/22 04:14:47;;;;;;;4.55;2.40;;;11.40;63.90;;;;;;4996565;28;20038;-78
2022/05/22 04:17:13;;;;;;;4.03;2.60;;;11.30;63.90;;;;;;4994987;28;20074;-78
2022/05/22 04:19:39;;;;;;;4.43;3.45;;;11.30;63.90;;;;;;5004141;28;20042;-78
2022/05/22 04:22:05;;;;;;;4.28;2.78;;;11.30;64.00;;;;;;4997026;28;20042;-78
2022/05/22 04:27:15;;;;;;;3.13;2.35;;;11.30;64.10;;;;;;5014839;28;20046;-78
2022/05/22 04:29:41;;;;;;;4.18;2.83;;;11.30;64.10;;;;;;5002135;28;20504;-78
2022/05/22 04:32:07;;;;;;;4.32;2.75;;;11.30;64.20;;;;;;5009754;28;20050;-78
2022/05/22 04:34:33;;;;;;;4.80;2.45;;;11.30;64.40;;;;;;5008676;28;20512;-78
2022/05/22 04:36:58;;;;;;;5.63;3.30;;;11.40;64.50;;;;;;5002659;28;20046;-78
2022/05/22 04:39:24;;;;;;;4.20;3.25;;;11.40;64.60;;;;;;5003922;28;20388;-78
2022/05/22 04:41:50;;;;;;;4.90;2.92;;;11.40;64.70;;;;;;5008200;28;20034;-78
2022/05/22 04:44:15;;;;;;;3.58;2.60;;;11.40;64.70;;;;;;5001676;28;20050;-78
2022/05/22 04:46:41;;;;;;;4.97;3.40;;;11.40;64.90;;;;;;5006061;28;20129;-79
2022/05/22 04:49:06;;;;;;;6.68;3.97;;;11.40;65.00;;;;;;5006846;28;20038;-78
2022/05/22 04:51:32;;;;;;;5.97;3.88;;;11.40;65.10;;;;;;5014082;28;20535;-79
2022/05/22 04:53:58;;;;;;;11.43;4.05;;;11.40;65.20;;;;;;5004602;28;20413;-79
2022/05/22 04:56:24;;;;;;;7.47;5.32;;;11.40;65.40;;;;;;5013386;28;20089;-78
2022/05/22 04:58:50;;;;;;;8.40;4.93;;;11.40;65.70;;;;;;5006646;28;20085;-78
2022/05/22 05:01:16;;;;;;;6.95;4.85;;;11.40;66.00;;;;;;5012349;28;20042;-78
2022/05/22 05:03:41;;;;;;;8.25;5.03;;;11.50;66.30;;;;;;5002075;28;20043;-79
2022/05/22 05:06:07;;;;;;;7.38;4.95;;;11.50;67.10;;;;;;5008680;28;20045;-78
2022/05/22 05:08:33;;;;;;;8.90;4.60;;;11.60;67.70;;;;;;5001353;28;20393;-79
2022/05/22 05:11:00;;;;;;;8.32;4.97;;;11.80;68.20;;;;;;5013433;28;20124;-78
2022/05/22 05:13:26;;;;;;;6.65;4.68;;;12.10;68.50;;;;;;5012463;28;20046;-79
2022/05/22 05:15:58;;;;;;;7.68;4.68;;;12.40;68.40;;;;;;5006903;28;20037;-79
2022/05/22 05:18:23;;;;;;;12.32;5.00;;;12.80;68.20;;;;;;5007981;28;20066;-78
2022/05/22 05:20:49;;;;;;;8.65;4.65;;;13.20;67.70;;;;;;5007779;28;20034;-79
2022/05/22 05:23:15;;;;;;;7.28;4.10;;;13.60;66.90;;;;;;5005477;28;20046;-79
2022/05/22 05:25:41;;;;;;;6.13;4.32;;;14.00;66.00;;;;;;5004664;28;20498;-79
2022/05/22 05:28:06;;;;;;;9.02;4.13;;;14.50;64.90;;;;;;4997877;28;20057;-79
2022/05/22 05:30:32;;;;;;;7.72;4.30;;;14.70;64.00;;;;;;5000112;28;20046;-79
2022/05/22 05:32:58;;;;;;;7.53;3.85;;;15.10;63.40;;;;;;5004381;28;20366;-79
2022/05/22 05:35:23;;;;;;;5.97;3.72;;;15.40;62.90;;;;;;5002827;28;20038;-79
2022/05/22 05:37:49;;;;;;;7.38;4.00;;;15.80;62.50;;;;;;5009931;28;20037;-79
2022/05/22 05:40:15;;;;;;;7.07;3.83;;;16.10;61.80;;;;;;5002616;28;20125;-79
2022/05/22 05:42:41;;;;;;;8.98;4.18;;;16.40;61.40;;;;;;5010202;28;20487;-79
2022/05/22 05:45:09;;;;;;;6.25;3.80;;;16.70;60.50;;;;;;5008204;28;20125;-79
2022/05/22 05:47:35;;;;;;;7.93;4.13;;;17.00;60.10;;;;;;5003901;28;20054;-79
2022/05/22 05:50:00;;;;;;;8.02;4.55;;;17.20;59.50;;;;;;5006386;28;20385;-78
2022/05/22 05:52:26;;;;;;;6.65;3.85;;;17.60;59.10;;;;;;4998837;28;20046;-79
2022/05/22 05:54:52;;;;;;;7.40;3.90;;;17.90;58.70;;;;;;4999808;28;20088;-78
2022/05/22 05:57:17;;;;;;;6.57;3.83;;;18.20;58.20;;;;;;4997434;28;20041;-79
2022/05/22 05:59:43;;;;;;;7.68;4.28;;;18.60;57.70;;;;;;5010261;28;20045;-79
2022/05/22 06:02:13;;;;;;;7.45;3.65;;;19.00;57.20;;;;;;4998455;28;20085;-79
2022/05/22 06:04:39;;;;;;;8.57;4.50;;;19.40;56.50;;;;;;4998554;28;20046;-79
2022/05/22 06:07:05;;;;;;;7.90;4.03;;;19.70;55.90;;;;;;5012827;28;20461;-79
2022/05/22 06:09:31;;;;;;;8.57;4.55;;;20.10;54.90;;;;;;5011695;28;20049;-79
2022/05/22 06:11:57;;;;;;;7.30;3.80;;;20.30;54.20;;;;;;4999785;28;20073;-79
2022/05/22 06:14:22;;;;;;;7.47;4.13;;;20.50;53.60;;;;;;5004846;28;20053;-79
2022/05/22 06:16:50;;;;;;;9.05;3.42;;;20.80;53.50;;;;;;5008533;28;20069;-79
2022/05/22 06:19:16;;;;;;;8.93;3.65;;;21.00;53.40;;;;;;4993454;28;20046;-79
2022/05/22 06:21:44;;;;;;;6.30;3.22;;;21.10;52.50;;;;;;5003250;28;20046;-79
2022/05/22 06:24:09;;;;;;;5.63;2.78;;;21.40;52.40;;;;;;4997117;28;20099;-79
2022/05/22 06:26:35;;;;;;;5.90;3.05;;;21.70;52.20;;;;;;4994800;28;20477;-79
2022/05/22 06:29:01;;;;;;;7.72;3.28;;;22.00;51.70;;;;;;5010587;28;20473;-78
2022/05/22 06:31:28;;;;;;;8.30;3.50;;;22.30;51.00;;;;;;4998641;28;20091;-79
2022/05/22 06:33:53;;;;;;;9.63;3.35;;;22.50;50.40;;;;;;4993433;28;20053;-78
2022/05/22 06:36:19;;;;;;;9.80;3.97;;;22.80;50.10;;;;;;4997188;28;20034;-78
2022/05/22 06:41:29;;;;;;;;;;;23.20;49.60;;;;;;5018844;28;20495;-79
2022/05/22 06:43:54;;;;;;;6.93;3.00;;;23.60;50.10;;;;;;5001568;28;19925;-79
2022/05/22 06:46:30;;;;;;;7.93;3.42;;;23.80;49.30;;;;;;4996746;28;20481;-79
2022/05/22 06:48:55;;;;;;;7.38;3.22;;;24.00;48.50;;;;;;4999735;28;20081;-79
2022/05/22 06:51:21;;;;;;;7.05;3.00;;;24.20;46.90;;;;;;5010056;28;20061;-79
2022/05/22 06:53:47;;;;;;;9.50;3.13;;;24.40;47.20;;;;;;5011176;28;20038;-79
2022/05/22 06:56:13;;;;;;;8.50;2.92;;;24.50;46.40;;;;;;4997959;28;20046;-79
2022/05/22 06:58:38;;;;;;;8.25;2.92;;;24.70;46.10;;;;;;4995464;28;20129;-79
2022/05/22 07:01:04;;;;;;;8.48;3.03;;;24.80;46.10;;;;;;5000932;28;20030;-79
2022/05/22 07:03:30;;;;;;;7.55;2.90;;;24.90;45.10;;;;;;5005598;28;20082;-79
2022/05/22 07:05:55;;;;;;;6.47;2.72;;;25.00;44.90;;;;;;5008648;28;20117;-79
2022/05/22 07:08:21;;;;;;;7.57;2.45;;;25.10;44.60;;;;;;5006017;28;20042;-78
2022/05/22 07:13:31;;;;;;;6.30;2.58;;;25.20;44.70;;;;;;4999383;28;20054;-79
2022/05/22 07:16:01;;;;;;;6.88;2.53;;;25.40;44.60;;;;;;5003791;28;20061;-78
2022/05/22 07:18:27;;;;;;;8.35;3.15;;;25.40;44.20;;;;;;5000632;28;20061;-79
2022/05/22 07:20:52;;;;;;;5.95;2.70;;;25.50;44.10;;;;;;5002122;28;20133;-79
2022/05/22 07:23:18;;;;;;;5.78;2.58;;;25.60;43.60;;;;;;5000599;28;20076;-79
2022/05/22 07:25:44;;;;;;;8.93;3.05;;;25.60;43.10;;;;;;5000830;28;20045;-80
2022/05/22 07:28:09;;;;;;;8.57;2.95;;;25.50;42.70;;;;;;4992260;28;20541;-78
2022/05/22 07:30:35;;;;;;;5.05;2.50;;;25.40;43.00;;;;;;5000446;28;20062;-80
2022/05/22 07:33:00;;;;;;;6.22;2.38;;;25.30;43.20;;;;;;4998089;28;20050;-81
2022/05/22 07:35:26;;;;;;;5.57;1.80;;;25.20;43.60;;;;;;5001493;28;20041;-80
2022/05/22 07:37:52;;;;;;;8.38;2.42;;;25.30;42.70;;;;;;5001146;28;20373;-79
2022/05/22 07:40:19;;;;;;;6.65;2.03;;;25.40;41.80;;;;;;4996911;28;20450;-80
2022/05/22 07:42:44;;;;;;;7.78;2.65;;;25.40;41.80;;;;;;4993571;28;20120;-79
2022/05/22 07:45:14;;;;;;;7.22;2.40;;;25.50;42.70;;;;;;4999572;28;20066;-77
2022/05/22 07:47:39;;;;;;;7.95;2.70;;;25.60;42.50;;;;;;4992448;28;20086;-78
2022/05/22 07:50:17;;;;;;;8.52;3.03;;;25.70;42.40;;;;;;4994499;28;20116;-76
2022/05/22 07:52:48;;;;;;;8.60;2.53;;;25.70;42.00;;;;;;5005591;28;20623;-77
2022/05/22 07:55:14;;;;;;;7.50;2.83;;;25.80;41.70;;;;;;4998746;28;20051;-77
2022/05/22 07:57:44;;;;;;;6.68;2.42;;;25.80;41.20;;;;;;5000674;28;20417;-79
2022/05/22 08:00:12;;;;;;;7.85;2.40;;;25.80;41.20;;;;;;4998881;28;20070;-78
2022/05/22 08:02:38;;;;;;;6.82;2.38;;;25.90;41.00;;;;;;4997600;28;20039;-77
2022/05/22 08:05:05;;;;;;;6.93;2.70;;;26.00;41.00;;;;;;4998639;28;20048;-77
2022/05/22 08:07:33;;;;;;;6.25;2.10;;;26.00;40.20;;;;;;5009239;28;20042;-77
2022/05/22 08:09:59;;;;;;;6.32;2.72;;;25.90;40.70;;;;;;5002281;28;20050;-77
2022/05/22 08:12:25;;;;;;;7.90;2.15;;;25.90;40.30;;;;;;5000962;28;20394;-77
2022/05/22 08:14:51;;;;;;;6.97;2.70;;;25.80;40.60;;;;;;4998954;28;20513;-79
2022/05/22 08:17:19;;;;;;;6.13;2.25;;;25.80;41.10;;;;;;5005917;28;20057;-78
2022/05/22 08:19:45;;;;;;;6.35;2.33;;;25.80;41.10;;;;;;5007711;28;20037;-79
2022/05/22 08:22:11;;;;;;;7.10;2.30;;;25.80;41.10;;;;;;5005196;28;20092;-77
2022/05/22 08:24:37;;;;;;;9.15;2.75;;;25.80;40.90;;;;;;4999520;28;20054;-79
2022/05/22 08:27:03;;;;;;;8.05;2.47;;;25.80;40.40;;;;;;4995048;28;20031;-79
2022/05/22 08:29:29;;;;;;;6.38;2.05;;;25.80;40.60;;;;;;5010873;28;20050;-79
2022/05/22 08:31:54;;;;;;;9.45;2.92;;;25.70;40.90;;;;;;5001060;28;20536;-80
2022/05/22 08:34:20;;;;;;;6.93;2.38;;;25.70;41.00;;;;;;5002285;28;20462;-81
2022/05/22 08:36:48;;;;;;;7.65;2.47;;;25.80;41.10;;;;;;4998169;28;20082;-78
2022/05/22 08:39:13;;;;;;;4.82;1.63;;;25.80;41.20;;;;;;5000387;28;20054;-81
2022/05/22 08:41:48;;;;;;;5.88;2.55;;;25.90;41.20;;;;;;4998509;28;20528;-81
2022/05/22 08:44:27;;;;;;;6.78;1.90;;;26.00;40.90;;;;;;5022281;28;20401;-80
2022/05/22 08:47:08;;;;;;;7.07;2.10;;;26.10;40.50;;;;;;4996997;28;20046;-81
2022/05/22 08:49:45;;;;;;;6.78;2.35;;;26.10;40.80;;;;;;5005256;28;20093;-82
2022/05/22 08:52:34;;;;;;;7.18;2.10;;;26.20;40.60;;;;;;5009553;28;20064;-80
2022/05/22 08:55:09;;;;;;;4.38;1.65;;;26.20;40.30;;;;;;5002275;28;20485;-80
2022/05/22 09:00:47;;;;;;;6.03;1.90;;;26.30;40.30;;;;;;4995816;28;20047;-81
2022/05/22 09:03:15;;;;;;;6.32;1.85;;;26.40;40.50;;;;;;4999524;28;20073;-81
2022/05/22 09:05:41;;;;;;;6.15;1.70;;;26.40;40.40;;;;;;4995219;28;20104;-81
2022/05/22 09:08:23;;;;;;;5.70;2.20;;;26.50;40.10;;;;;;4996707;28;20101;-82
2022/05/22 09:11:08;;;;;;;8.15;2.05;;;26.50;39.30;;;;;;5008704;28;20050;-81
2022/05/22 09:13:51;;;;;;;6.28;2.25;;;26.50;39.20;;;;;;5005314;28;20060;-81
2022/05/22 09:16:48;;;;;;;8.02;1.90;;;26.40;38.90;;;;;;5000877;28;20046;-81
2022/05/22 09:19:35;;;;;;;4.45;1.27;;;26.40;39.10;;;;;;5006898;28;20046;-81
2022/05/22 09:22:21;;;;;;;7.18;2.45;;;26.30;38.70;;;;;;4997418;28;20046;-80
2022/05/22 09:25:24;;;;;;;5.97;1.70;;;26.30;39.20;;;;;;5005587;28;20496;-81
2022/05/22 09:28:08;;;;;;;6.43;1.95;;;26.30;38.80;;;;;;5000840;28;20525;-81
2022/05/22 09:31:15;;;;;;;5.53;1.70;;;26.20;38.70;;;;;;4998649;28;20050;-80
2022/05/22 09:33:58;;;;;;;5.68;1.65;;;26.20;39.20;;;;;;4946188;28;20073;-81
2022/05/22 09:36:51;;;;;;;6.93;2.10;;;26.10;38.80;;;;;;4968617;28;20499;-80
2022/05/22 09:39:31;;;;;;;6.03;1.67;;;26.10;38.90;;;;;;4967587;28;20066;-80
2022/05/22 09:42:20;;;;;;;4.88;1.40;;;26.00;38.90;;;;;;4965672;28;20046;-81
2022/05/22 09:45:18;;;;;;;6.70;1.85;;;26.00;38.90;;;;;;4961556;28;20098;-81
2022/05/22 09:47:50;;;;;;;4.75;1.50;;;26.00;38.00;;;;;;4972550;28;20130;-81
2022/05/22 09:50:48;;;;;;;7.85;2.13;;;25.90;38.30;;;;;;4959166;28;20083;-81
2022/05/22 09:53:25;;;;;;;4.95;1.42;;;25.90;38.50;;;;;;4914067;29;20048;-81
2022/05/22 09:55:51;;;;;;;5.18;1.55;;;25.80;38.80;;;;;;4916076;29;20060;-81
2022/05/22 09:58:29;;;;;;;5.18;1.55;;;25.80;38.80;;;;;;4914456;29;20070;-81
2022/05/22 10:01:19;;;;;;;4.72;1.73;;;25.80;39.00;;;;;;4900156;29;20060;-81
2022/05/22 10:04:06;;;;;;;6.30;1.58;;;25.80;38.60;;;;;;4920699;29;20111;-81
2022/05/22 10:06:47;;;;;;;4.75;1.13;;;25.90;38.70;;;;;;4934502;29;20090;-80
2022/05/22 10:09:51;;;;;;;5.00;1.52;;;25.80;38.50;;;;;;4939473;29;20051;-79
2022/05/22 10:12:52;;;;;;;6.53;1.83;;;25.80;38.20;;;;;;4933701;29;20403;-79
2022/05/22 10:15:35;;;;;;;5.43;1.33;;;25.80;37.60;;;;;;4859333;29;20049;-81
2022/05/22 10:18:27;;;;;;;2.88;1.00;;;25.70;37.70;;;;;;4858734;29;20121;-80
2022/05/22 10:21:12;;;;;;;6.40;1.55;;;25.70;38.40;;;;;;4859779;29;20050;-81
2022/05/22 10:23:45;;;;;;;7.38;1.52;;;25.70;38.30;;;;;;4859585;29;20187;-82
2022/05/22 10:26:31;;;;;;;7.90;1.88;;;25.70;38.20;;;;;;4858696;29;20060;-77
2022/05/22 10:29:22;;;;;;;5.10;1.50;;;25.70;38.40;;;;;;4887038;29;20143;-81
2022/05/22 10:32:03;;;;;;;5.72;1.58;;;25.70;38.50;;;;;;4896398;29;20064;-78
2022/05/22 10:34:37;;;;;;;5.32;1.92;;;25.70;38.50;;;;;;4880598;29;20064;-81
2022/05/22 10:37:28;;;;;;;5.63;1.60;;;25.80;38.30;;;;;;4880318;29;20421;-81
2022/05/22 10:39:57;;;;;;;5.75;1.40;;;25.80;37.70;;;;;;4885037;29;20087;-82
2022/05/22 10:42:45;;;;;;;5.70;1.50;;;25.70;36.20;;;;;;4896100;29;20071;-84
2022/05/22 10:45:21;;;;;;;3.95;1.40;;;25.50;36.00;;;;;;4896354;29;20049;-84
2022/05/22 10:47:49;;;;;;;4.57;1.73;;;25.30;37.50;;;;;;4896981;29;20060;-83
2022/05/22 10:50:26;;;;;;;5.60;1.80;;;25.20;38.60;;;;;;4914632;29;20055;-83
2022/05/22 10:52:53;;;;;;;3.65;1.15;;;25.20;38.90;;;;;;4984372;28;20379;-82
2022/05/22 10:55:45;;;;;;;6.32;1.48;;;25.20;39.00;;;;;;5001889;28;20525;-81
2022/05/22 10:58:26;;;;;;;4.40;1.80;;;25.30;38.80;;;;;;4993455;28;20046;-85
2022/05/22 11:00:54;;;;;;;6.80;1.85;;;25.40;39.20;;;;;;4994451;28;20042;-83
2022/05/22 11:03:28;;;;;;;4.65;1.42;;;25.40;39.00;;;;;;5010280;28;20046;-85
2022/05/22 11:05:54;;;;;;;;;;;25.50;38.90;;;;;;5026831;28;20051;-84
2022/05/22 11:08:34;;;;;;;5.93;1.75;;;25.50;39.50;;;;;;4991851;28;20389;-83
2022/05/22 11:11:15;;;;;;;4.43;1.40;;;25.60;38.10;;;;;;4997365;28;20046;-83
2022/05/22 11:13:42;;;;;;;5.05;1.38;;;25.50;37.80;;;;;;4992241;28;20386;-84
2022/05/22 11:16:18;;;;;;;4.35;1.40;;;25.40;37.40;;;;;;5000680;28;20073;-85
2022/05/22 11:18:44;;;;;;;6.32;2.05;;;25.30;37.60;;;;;;5009472;28;21886;-85
2022/05/22 11:21:24;;;;;;;4.55;1.50;;;25.20;37.60;;;;;;5011916;28;20046;-85
2022/05/22 11:23:52;;;;;;;5.47;1.90;;;25.10;37.90;;;;;;4994847;28;20481;-84
2022/05/22 11:26:29;;;;;;;4.60;1.52;;;25.20;38.00;;;;;;4992584;28;20130;-84
2022/05/22 11:29:03;;;;;;;5.97;1.48;;;25.10;38.60;;;;;;4994156;28;20502;-84
2022/05/22 11:31:41;;;;;;;3.42;1.10;;;25.20;37.50;;;;;;4995429;28;20617;-83
2022/05/22 11:34:42;;;;;;;4.53;1.42;;;25.20;38.40;;;;;;5006620;28;20054;-85
2022/05/22 11:37:19;;;;;;;3.63;1.30;;;25.20;38.30;;;;;;4963313;28;20097;-85
2022/05/22 11:39:56;;;;;;;3.70;1.55;;;25.20;38.20;;;;;;4957998;28;20047;-84
2022/05/22 11:42:34;;;;;;;6.38;1.88;;;25.30;37.80;;;;;;4963244;28;20418;-84
2022/05/22 11:45:10;;;;;;;4.63;1.30;;;25.40;37.70;;;;;;4957103;29;20051;-84
2022/05/22 11:48:15;;;;;;;4.88;1.58;;;25.40;37.40;;;;;;4958630;28;20542;-84
2022/05/22 11:51:02;;;;;;;6.38;1.48;;;25.40;38.10;;;;;;4880412;29;20064;-84
2022/05/22 11:53:52;;;;;;;4.13;1.50;;;25.40;37.30;;;;;;4880845;29;20056;-86
2022/05/22 11:56:28;;;;;;;4.10;1.15;;;25.20;36.50;;;;;;4865182;29;20053;-85
2022/05/22 11:59:32;;;;;;;3.42;1.10;;;25.10;36.40;;;;;;4880748;29;20049;-85
2022/05/22 12:02:31;;;;;;;6.05;1.25;;;25.00;37.00;;;;;;4880050;29;20061;-80
2022/05/22 12:05:13;;;;;;;5.18;1.40;;;24.80;37.90;;;;;;4880141;29;20052;-82
2022/05/22 12:08:18;;;;;;;6.13;1.30;;;24.70;37.90;;;;;;4880461;29;20057;-82
2022/05/22 12:11:12;;;;;;;5.82;1.40;;;24.70;39.10;;;;;;4865312;29;20178;-83
2022/05/22 12:13:50;;;;;;;4.18;1.40;;;24.70;38.20;;;;;;4894970;29;20055;-82
2022/05/22 12:16:23;;;;;;;4.05;1.45;;;24.70;38.10;;;;;;4938685;29;20062;-88
2022/05/22 12:19:36;;;;;;;4.70;1.55;;;24.70;37.60;;;;;;4937754;29;20083;-86
2022/05/22 12:25:23;;;;;;;4.43;1.25;;;24.70;37.70;;;;;;4861079;29;20081;-83
2022/05/22 12:27:51;;;;;;;5.32;1.65;;;24.70;37.40;;;;;;4890950;29;20508;-85
2022/05/22 12:30:31;;;;;;;4.55;1.45;;;24.60;37.90;;;;;;4936668;29;20447;-82
2022/05/22 12:32:59;;;;;;;4.28;1.35;;;24.50;38.10;;;;;;4936426;29;20130;-91
2022/05/22 12:35:26;;;;;;;5.05;1.70;;;24.40;37.50;;;;;;4908009;29;20063;-94
2022/05/22 12:38:03;;;;;;;4.15;1.30;;;24.20;37.50;;;;;;4932905;29;20051;-82
2022/05/22 12:41:00;;;;;;;3.78;1.48;;;24.00;38.30;;;;;;4920861;29;20546;-81
2022/05/22 12:43:27;;;;;;;4.20;1.27;;;24.00;38.20;;;;;;4934185;29;20043;-85
2022/05/22 12:45:58;;;;;;;4.13;1.38;;;23.90;38.90;;;;;;4923107;29;20136;-79
2022/05/22 12:48:35;;;;;;;3.40;1.20;;;23.90;39.10;;;;;;4935835;29;20397;-80
2022/05/22 12:51:22;;;;;;;5.05;1.65;;;23.90;38.30;;;;;;4920653;29;20067;-80
2022/05/22 12:53:52;;;;;;;5.97;1.40;;;23.80;38.70;;;;;;4898816;29;20060;-81
2022/05/22 12:56:29;;;;;;;4.55;1.38;;;23.60;37.70;;;;;;4909410;29;20044;-80
2022/05/22 12:58:56;;;;;;;4.65;1.77;;;23.40;38.40;;;;;;4986111;28;20058;-81
2022/05/22 13:01:39;;;;;;;4.05;1.38;;;23.30;39.30;;;;;;4996557;28;20085;-81
2022/05/22 13:04:30;;;;;;;5.03;1.17;;;23.30;39.50;;;;;;4975564;28;20065;-80
2022/05/22 13:07:09;;;;;;;4.25;1.20;;;23.10;39.10;;;;;;4997673;28;20050;-80
2022/05/22 13:09:44;;;;;;;5.28;1.38;;;22.90;39.60;;;;;;4997422;28;20054;-81
2022/05/22 13:12:13;;;;;;;5.05;1.33;;;22.80;39.30;;;;;;4992256;28;20129;-82
2022/05/22 13:14:47;;;;;;;3.35;1.40;;;22.70;38.80;;;;;;5012725;28;20061;-83
2022/05/22 13:17:16;;;;;;;3.78;1.00;;;22.70;39.40;;;;;;5003797;28;20540;-82
2022/05/22 13:19:56;;;;;;;4.45;1.25;;;22.60;40.00;;;;;;4996024;28;20443;-81
2022/05/22 13:22:33;;;;;;;7.60;1.55;;;22.60;40.30;;;;;;5001368;28;20037;-82
2022/05/22 13:25:00;;;;;;;5.63;1.55;;;22.60;40.00;;;;;;4994609;28;20062;-81
2022/05/22 13:27:28;;;;;;;5.93;1.33;;;22.60;40.30;;;;;;5001167;28;20378;-81
2022/05/22 13:30:20;;;;;;;4.53;1.30;;;22.70;40.60;;;;;;4998619;28;20041;-81